Eships Dana — ZDJT6 — position and weather

sailwx.info

Track history (hours):
 
Tides and Currents Weather Stations Pressure Air Temp Water Temp Dewpoint Dewpoint Depression Visibility Wind Speed Wind Dir Waves Ship Positions

Eships Dana

Last reported at 2016-Dec-05 07:29 UTC. Time now 2016-Dec-05 08:31 UTC.
Position N 51°16' E 004°15'.

Length 116 m; draft 7.2 m.

Type: Ship (hazmat cat A). MMSI: 236566000.

Date/timePositionNaut miles runAvg speedWind from/ knotsBaromVisibWave heightAir tempDewpointWater temp
2016-Dec-05 07:29N 51°16' E 004°15'0 0.0
2016-Dec-05 06:32N 51°16' E 004°15'0 0.0
2016-Dec-05 05:32N 51°16' E 004°15'0 0.0
2016-Dec-05 04:32N 51°16' E 004°15'0 0.0
2016-Dec-05 03:29N 51°16' E 004°15'0 0.0
2016-Dec-05 02:32N 51°16' E 004°15'0 0.0
2016-Dec-05 01:32N 51°16' E 004°15'0 0.0
2016-Dec-05 00:32N 51°16' E 004°15'0 0.0
2016-Dec-04 23:32N 51°16' E 004°15'0 0.0
2016-Dec-04 22:32N 51°16' E 004°15'0 0.0
2016-Dec-04 21:32N 51°16' E 004°15'0 0.0
2016-Dec-04 20:32N 51°16' E 004°15'0 0.0
2016-Dec-04 19:26N 51°16' E 004°15'0 0.0
2016-Dec-04 18:26N 51°16' E 004°15'0 0.0
2016-Dec-04 17:32N 51°16' E 004°15'0 0.0
2016-Dec-04 16:32N 51°16' E 004°15'0 0.0
2016-Dec-04 15:32N 51°16' E 004°15'0 0.0
2016-Dec-04 14:32N 51°16' E 004°15'0 0.0
2016-Dec-04 13:32N 51°16' E 004°15'0 0.3
2016-Dec-04 12:33N 51°16' E 004°16'1 0.9
2016-Dec-04 11:33N 51°16' E 004°17'6 6.3
2016-Dec-04 10:33N 51°22' E 004°13'8 7.8
2016-Dec-04 09:33N 51°25' E 004°02'8 8.4
2016-Dec-04 08:33N 51°21' E 003°50'9 9.4
2016-Dec-04 07:33N 51°26' E 003°38'9 9.3
2016-Dec-04 06:33N 51°24' E 003°23'1212.2
2016-Dec-04 05:33N 51°24' E 003°04'9 9.4
2016-Dec-04 04:33N 51°33' E 003°08'1211.9
2016-Dec-04 03:33N 51°44' E 003°17'3 3.2
2016-Dec-04 02:32N 51°46' E 003°20'0 0.0
2016-Dec-03 23:28N 51°46' E 003°20'0 0.0
2016-Dec-03 18:32N 51°47' E 003°20'0 0.1
2016-Dec-03 17:26N 51°47' E 003°20'0 0.0
2016-Dec-03 16:26N 51°47' E 003°20'0 0.0
2016-Dec-03 15:23N 51°47' E 003°20'0 0.1
2016-Dec-03 14:20N 51°46' E 003°20'0 0.0
2016-Dec-03 09:31N 51°46' E 003°20'0 0.1
2016-Dec-03 08:26N 51°46' E 003°20'0 0.0
2016-Dec-03 07:32N 51°46' E 003°20'0 0.1
2016-Dec-03 06:17N 51°47' E 003°20'0 0.1
2016-Dec-03 05:23N 51°47' E 003°20'0 0.0
2016-Dec-03 04:29N 51°47' E 003°20'0 0.0
2016-Dec-03 03:28N 51°47' E 003°20'0 0.0
2016-Dec-02 19:14N 51°46' E 003°20'3 4.0
2016-Dec-02 18:30N 51°48' E 003°16'9 8.8
2016-Dec-02 17:28N 51°50' E 003°02'452234.7
2016-Dec-02 15:32N 59°14' E 005°31'0 0.0
2016-Dec-02 14:30N 59°14' E 005°31'0 0.0
2016-Dec-02 13:32N 59°14' E 005°31'0 0.1
2016-Dec-02 12:30N 59°14' E 005°31'0 0.0
2016-Dec-02 11:32N 59°14' E 005°31'0 0.0
2016-Dec-02 10:33N 59°14' E 005°31'0 0.1
2016-Dec-02 09:33N 59°14' E 005°31'0 0.0
2016-Dec-02 08:29N 59°14' E 005°31'0 0.1
2016-Dec-02 07:30N 59°14' E 005°31'0 0.0
2016-Dec-02 06:28N 59°14' E 005°31'0 0.0
2016-Dec-02 05:30N 59°14' E 005°30'0 0.0
2016-Dec-02 04:29N 59°14' E 005°31'0 0.1
2016-Dec-02 03:29N 59°14' E 005°30'0 0.1
2016-Dec-02 02:33N 59°14' E 005°31'0 0.0
2016-Dec-02 01:32N 59°14' E 005°31'0 0.0
2016-Dec-02 00:31N 59°14' E 005°31'0 0.0
2016-Dec-01 23:29N 59°14' E 005°31'0 0.0
2016-Dec-01 22:30N 59°14' E 005°31'0 0.0
2016-Dec-01 21:33N 59°14' E 005°31'0 0.0
2016-Dec-01 20:30N 59°14' E 005°31'0 0.0
2016-Dec-01 19:34N 59°14' E 005°31'0 0.0
2016-Dec-01 18:33N 59°14' E 005°31'0 0.0
2016-Dec-01 17:33N 59°14' E 005°31'0 0.0
2016-Dec-01 16:32N 59°14' E 005°31'0 0.0
2016-Dec-01 15:32N 59°14' E 005°31'0 0.0
2016-Dec-01 14:32N 59°14' E 005°31'0 0.0
2016-Dec-01 13:33N 59°14' E 005°31'0 0.0
2016-Dec-01 12:30N 59°14' E 005°31'0 0.0
2016-Dec-01 11:32N 59°14' E 005°31'5451.5
2016-Dec-01 10:28N 58°21' E 005°06'1212.8
2016-Dec-01 09:34N 58°33' E 005°06'1312.6
2016-Dec-01 08:33N 58°46' E 005°09'1010.3
2016-Dec-01 07:34N 58°56' E 005°07'10 9.8
2016-Dec-01 06:34N 59°04' E 005°17'9 8.9
2016-Dec-01 05:33N 59°10' E 005°30'4 3.3
2016-Dec-01 04:20N 59°14' E 005°31'0 0.0
2016-Dec-01 03:33N 59°14' E 005°31'0 0.0
2016-Dec-01 02:32N 59°14' E 005°31'0 0.0
2016-Dec-01 01:32N 59°14' E 005°31'0 0.0
2016-Dec-01 00:32N 59°14' E 005°31'0 0.0
2016-Nov-30 23:31N 59°14' E 005°31'0 0.0
2016-Nov-30 22:33N 59°14' E 005°30'0 0.0
2016-Nov-30 21:30N 59°14' E 005°30'0 0.0
2016-Nov-30 20:33N 59°14' E 005°30'0 0.0
2016-Nov-30 19:33N 59°14' E 005°30'0 0.0
2016-Nov-30 18:33N 59°14' E 005°31'0 0.0
2016-Nov-30 17:32N 59°14' E 005°31'0 0.0
2016-Nov-30 16:32N 59°14' E 005°31'0 0.0
2016-Nov-30 15:30N 59°14' E 005°31'0 0.0
2016-Nov-30 14:32N 59°14' E 005°31'0 0.0
2016-Nov-30 13:32N 59°14' E 005°31'0 0.0
2016-Nov-30 12:30N 59°14' E 005°31'0 0.0
2016-Nov-30 11:32N 59°14' E 005°31'0 0.0
2016-Nov-30 10:31N 59°14' E 005°31'0 0.0
2016-Nov-30 09:32N 59°14' E 005°31'3 3.5
2016-Nov-30 08:33N 59°11' E 005°32'6 6.3
2016-Nov-30 07:33N 59°06' E 005°24'8 8.2
2016-Nov-30 06:33N 58°58' E 005°19'6 6.5
2016-Nov-30 05:33N 58°52' E 005°18'9 8.9
2016-Nov-30 04:33N 58°43' E 005°17'1010.1
2016-Nov-30 03:33N 58°33' E 005°16'10 8.9
2016-Nov-30 02:28N 58°23' E 005°20'9 9.6
2016-Nov-30 01:33N 58°17' E 005°32'10 9.5
2016-Nov-30 00:33N 58°11' E 005°46'1010.3
2016-Nov-29 23:33N 58°04' E 006°01'9 9.6
2016-Nov-29 22:33N 57°58' E 006°14'7973.8
2016-Nov-29 21:29N 59°14' E 005°31'9693.5
2016-Nov-29 20:28N 57°47' E 006°49'9619.4
2016-Nov-29 15:32N 59°14' E 005°31'0 0.1
2016-Nov-29 14:32N 59°14' E 005°31'0 0.0
2016-Nov-29 13:26N 59°14' E 005°31'0 0.1
2016-Nov-29 12:05N 59°14' E 005°31'0 0.0
2016-Nov-29 11:32N 59°14' E 005°31'0 0.0
2016-Nov-29 10:32N 59°14' E 005°30'0 0.0
2016-Nov-29 09:32N 59°14' E 005°31'0 0.0
2016-Nov-29 08:23N 59°14' E 005°31'0 0.0
2016-Nov-29 07:29N 59°14' E 005°31'0 0.0
2016-Nov-29 06:29N 59°14' E 005°31'0 0.0
2016-Nov-29 05:29N 59°14' E 005°31'0 0.0
2016-Nov-29 04:32N 59°14' E 005°31'0 0.0
2016-Nov-29 03:29N 59°14' E 005°31'0 0.0
2016-Nov-29 02:26N 59°14' E 005°31'0 0.0
2016-Nov-29 01:32N 59°14' E 005°31'0 0.0
2016-Nov-29 00:32N 59°14' E 005°31'0 0.0
2016-Nov-28 23:32N 59°14' E 005°31'0 0.0
2016-Nov-28 22:32N 59°14' E 005°31'0 0.0
2016-Nov-28 21:32N 59°14' E 005°31'0 0.0
2016-Nov-28 20:32N 59°14' E 005°31'0 0.0
2016-Nov-28 19:17N 59°14' E 005°31'0 0.0
2016-Nov-28 18:29N 59°14' E 005°31'0 0.0
2016-Nov-28 15:17N 59°14' E 005°31'0 0.0
2016-Nov-28 14:32N 59°14' E 005°31'0 0.0
2016-Nov-28 13:32N 59°14' E 005°31'0 0.0
2016-Nov-28 12:32N 59°14' E 005°30'0 0.0
2016-Nov-28 11:26N 59°14' E 005°30'0 0.0
2016-Nov-28 10:32N 59°14' E 005°31'0 0.0
2016-Nov-28 09:32N 59°14' E 005°31'0 0.0
2016-Nov-28 08:32N 59°14' E 005°31'0 0.0
2016-Nov-28 07:14N 59°14' E 005°31'0 0.0
2016-Nov-28 05:29N 59°14' E 005°31'0 0.0
2016-Nov-28 04:32N 59°14' E 005°31'2 2.1
2016-Nov-28 03:33N 59°12' E 005°32'9 9.0
2016-Nov-28 02:33N 59°05' E 005°22'1212.0
2016-Nov-28 01:33N 58°53' E 005°18'1111.0
2016-Nov-28 00:33N 58°42' E 005°17'1313.4
2016-Nov-27 23:34N 58°29' E 005°16'1312.6
2016-Nov-27 22:33N 58°18' E 005°30'1813.7
2016-Nov-27 21:15N 58°07' E 005°56'1014.1
2016-Nov-27 20:33N 58°00' E 006°10'1414.1
2016-Nov-27 19:33N 57°51' E 006°30'1413.7
2016-Nov-27 18:33N 57°47' E 006°54'1614.2
2016-Nov-27 17:28N 57°47' E 007°24'9613.9
2016-Nov-27 10:34N 57°49' E 010°24'1312.6
2016-Nov-27 09:33N 57°49' E 010°47'1211.5
2016-Nov-27 08:33N 57°42' E 011°05'1211.9
2016-Nov-27 07:33N 57°38' E 011°26'1010.2
2016-Nov-27 06:33N 57°39' E 011°44'2 2.0
2016-Nov-27 05:33N 57°40' E 011°48'0 0.0
2016-Nov-27 04:33N 57°40' E 011°48'0 0.0
2016-Nov-27 03:33N 57°40' E 011°48'0 0.0
2016-Nov-27 02:33N 57°40' E 011°48'0 0.0
2016-Nov-27 01:33N 57°40' E 011°48'1 1.0
2016-Nov-27 00:34N 57°40' E 011°46'9 9.1
2016-Nov-26 23:34N 57°32' E 011°36'8 8.1
2016-Nov-26 22:33N 57°24' E 011°36'1110.9
2016-Nov-26 21:33N 57°13' E 011°37'1212.1
2016-Nov-26 20:33N 57°01' E 011°44'4711.7
2016-Nov-26 16:34N 56°17' E 012°09'1211.6
2016-Nov-26 15:33N 56°10' E 012°26'10 9.6
2016-Nov-26 14:33N 56°04' E 012°39'9 8.9
2016-Nov-26 13:33N 55°55' E 012°39'1111.1
2016-Nov-26 12:34N 55°44' E 012°41'1010.2
2016-Nov-26 11:34N 55°33' E 012°42'1010.3
2016-Nov-26 10:34N 55°23' E 012°41'1010.0
2016-Nov-26 09:33N 55°16' E 012°53'1111.4
2016-Nov-26 08:33N 55°11' E 013°12'1211.5
2016-Nov-26 07:33N 55°02' E 013°24'2612.6
2016-Nov-26 05:30N 54°42' E 013°53'1412.8
2016-Nov-26 04:26N 54°39' E 014°16'1512.9
2016-Nov-26 03:16N 54°39' E 014°42'913.1
2016-Nov-26 02:33N 54°40' E 014°57'1313.1
2016-Nov-26 01:33N 54°42' E 015°20'1413.4
2016-Nov-26 00:30N 54°44' E 015°44'7813.1
2016-Nov-25 18:33N 54°59' E 017°57'1313.3
2016-Nov-25 17:34N 54°59' E 018°20'1313.4
2016-Nov-25 16:33N 54°59' E 018°44'1414.1
2016-Nov-25 15:33N 54°48' E 018°59'1313.3
2016-Nov-25 14:33N 54°35' E 019°06'1111.3
2016-Nov-25 13:34N 54°26' E 018°54'7 7.0
2016-Nov-25 12:31N 54°24' E 018°42'0 0.0
2016-Nov-25 11:31N 54°24' E 018°42'0 0.0
2016-Nov-25 10:31N 54°24' E 018°42'0 0.0
2016-Nov-25 09:31N 54°24' E 018°42'0 0.0
2016-Nov-25 08:31N 54°24' E 018°42'0 0.0
2016-Nov-25 07:31N 54°24' E 018°42'  
Track history (hours):
 
Tides and Currents Weather Stations Pressure Air Temp Water Temp Dewpoint Dewpoint Depression Visibility Wind Speed Wind Dir Waves Ship Positions

Eships Dana

Last reported at 2016-Dec-05 07:29 UTC. Time now 2016-Dec-05 08:31 UTC.
Position N 51°16' E 004°15'.

Length 116 m; draft 7.2 m.

Type: Ship (hazmat cat A). MMSI: 236566000.

Date/timePositionNaut miles runAvg speedWind from/ knotsBaromVisibWave heightAir tempDewpointWater temp
2016-Dec-05 07:29N 51°16' E 004°15'0 0.0
2016-Dec-05 06:32N 51°16' E 004°15'0 0.0
2016-Dec-05 05:32N 51°16' E 004°15'0 0.0
2016-Dec-05 04:32N 51°16' E 004°15'0 0.0
2016-Dec-05 03:29N 51°16' E 004°15'0 0.0
2016-Dec-05 02:32N 51°16' E 004°15'0 0.0
2016-Dec-05 01:32N 51°16' E 004°15'0 0.0
2016-Dec-05 00:32N 51°16' E 004°15'0 0.0
2016-Dec-04 23:32N 51°16' E 004°15'0 0.0
2016-Dec-04 22:32N 51°16' E 004°15'0 0.0
2016-Dec-04 21:32N 51°16' E 004°15'0 0.0
2016-Dec-04 20:32N 51°16' E 004°15'0 0.0
2016-Dec-04 19:26N 51°16' E 004°15'0 0.0
2016-Dec-04 18:26N 51°16' E 004°15'0 0.0
2016-Dec-04 17:32N 51°16' E 004°15'0 0.0
2016-Dec-04 16:32N 51°16' E 004°15'0 0.0
2016-Dec-04 15:32N 51°16' E 004°15'0 0.0
2016-Dec-04 14:32N 51°16' E 004°15'0 0.0
2016-Dec-04 13:32N 51°16' E 004°15'0 0.3
2016-Dec-04 12:33N 51°16' E 004°16'1 0.9
2016-Dec-04 11:33N 51°16' E 004°17'6 6.3
2016-Dec-04 10:33N 51°22' E 004°13'8 7.8
2016-Dec-04 09:33N 51°25' E 004°02'8 8.4
2016-Dec-04 08:33N 51°21' E 003°50'9 9.4
2016-Dec-04 07:33N 51°26' E 003°38'9 9.3
2016-Dec-04 06:33N 51°24' E 003°23'1212.2
2016-Dec-04 05:33N 51°24' E 003°04'9 9.4
2016-Dec-04 04:33N 51°33' E 003°08'1211.9
2016-Dec-04 03:33N 51°44' E 003°17'3 3.2
2016-Dec-04 02:32N 51°46' E 003°20'0 0.0
2016-Dec-03 23:28N 51°46' E 003°20'0 0.0
2016-Dec-03 18:32N 51°47' E 003°20'0 0.1
2016-Dec-03 17:26N 51°47' E 003°20'0 0.0
2016-Dec-03 16:26N 51°47' E 003°20'0 0.0
2016-Dec-03 15:23N 51°47' E 003°20'0 0.1
2016-Dec-03 14:20N 51°46' E 003°20'0 0.0
2016-Dec-03 09:31N 51°46' E 003°20'0 0.1
2016-Dec-03 08:26N 51°46' E 003°20'0 0.0
2016-Dec-03 07:32N 51°46' E 003°20'0 0.1
2016-Dec-03 06:17N 51°47' E 003°20'0 0.1
2016-Dec-03 05:23N 51°47' E 003°20'0 0.0
2016-Dec-03 04:29N 51°47' E 003°20'0 0.0
2016-Dec-03 03:28N 51°47' E 003°20'0 0.0
2016-Dec-02 19:14N 51°46' E 003°20'3 4.0
2016-Dec-02 18:30N 51°48' E 003°16'9 8.8
2016-Dec-02 17:28N 51°50' E 003°02'452234.7
2016-Dec-02 15:32N 59°14' E 005°31'0 0.0
2016-Dec-02 14:30N 59°14' E 005°31'0 0.0
2016-Dec-02 13:32N 59°14' E 005°31'0 0.1
2016-Dec-02 12:30N 59°14' E 005°31'0 0.0
2016-Dec-02 11:32N 59°14' E 005°31'0 0.0
2016-Dec-02 10:33N 59°14' E 005°31'0 0.1
2016-Dec-02 09:33N 59°14' E 005°31'0 0.0
2016-Dec-02 08:29N 59°14' E 005°31'0 0.1
2016-Dec-02 07:30N 59°14' E 005°31'0 0.0
2016-Dec-02 06:28N 59°14' E 005°31'0 0.0
2016-Dec-02 05:30N 59°14' E 005°30'0 0.0
2016-Dec-02 04:29N 59°14' E 005°31'0 0.1
2016-Dec-02 03:29N 59°14' E 005°30'0 0.1
2016-Dec-02 02:33N 59°14' E 005°31'0 0.0
2016-Dec-02 01:32N 59°14' E 005°31'0 0.0
2016-Dec-02 00:31N 59°14' E 005°31'0 0.0
2016-Dec-01 23:29N 59°14' E 005°31'0 0.0
2016-Dec-01 22:30N 59°14' E 005°31'0 0.0
2016-Dec-01 21:33N 59°14' E 005°31'0 0.0
2016-Dec-01 20:30N 59°14' E 005°31'0 0.0
2016-Dec-01 19:34N 59°14' E 005°31'0 0.0
2016-Dec-01 18:33N 59°14' E 005°31'0 0.0
2016-Dec-01 17:33N 59°14' E 005°31'0 0.0
2016-Dec-01 16:32N 59°14' E 005°31'0 0.0
2016-Dec-01 15:32N 59°14' E 005°31'0 0.0
2016-Dec-01 14:32N 59°14' E 005°31'0 0.0
2016-Dec-01 13:33N 59°14' E 005°31'0 0.0
2016-Dec-01 12:30N 59°14' E 005°31'0 0.0
2016-Dec-01 11:32N 59°14' E 005°31'5451.5
2016-Dec-01 10:28N 58°21' E 005°06'1212.8
2016-Dec-01 09:34N 58°33' E 005°06'1312.6
2016-Dec-01 08:33N 58°46' E 005°09'1010.3
2016-Dec-01 07:34N 58°56' E 005°07'10 9.8
2016-Dec-01 06:34N 59°04' E 005°17'9 8.9
2016-Dec-01 05:33N 59°10' E 005°30'4 3.3
2016-Dec-01 04:20N 59°14' E 005°31'0 0.0
2016-Dec-01 03:33N 59°14' E 005°31'0 0.0
2016-Dec-01 02:32N 59°14' E 005°31'0 0.0
2016-Dec-01 01:32N 59°14' E 005°31'0 0.0
2016-Dec-01 00:32N 59°14' E 005°31'0 0.0
2016-Nov-30 23:31N 59°14' E 005°31'0 0.0
2016-Nov-30 22:33N 59°14' E 005°30'0 0.0
2016-Nov-30 21:30N 59°14' E 005°30'0 0.0
2016-Nov-30 20:33N 59°14' E 005°30'0 0.0
2016-Nov-30 19:33N 59°14' E 005°30'0 0.0
2016-Nov-30 18:33N 59°14' E 005°31'0 0.0
2016-Nov-30 17:32N 59°14' E 005°31'0 0.0
2016-Nov-30 16:32N 59°14' E 005°31'0 0.0
2016-Nov-30 15:30N 59°14' E 005°31'0 0.0
2016-Nov-30 14:32N 59°14' E 005°31'0 0.0
2016-Nov-30 13:32N 59°14' E 005°31'0 0.0
2016-Nov-30 12:30N 59°14' E 005°31'0 0.0
2016-Nov-30 11:32N 59°14' E 005°31'0 0.0
2016-Nov-30 10:31N 59°14' E 005°31'0 0.0
2016-Nov-30 09:32N 59°14' E 005°31'3 3.5
2016-Nov-30 08:33N 59°11' E 005°32'6 6.3
2016-Nov-30 07:33N 59°06' E 005°24'8 8.2
2016-Nov-30 06:33N 58°58' E 005°19'6 6.5
2016-Nov-30 05:33N 58°52' E 005°18'9 8.9
2016-Nov-30 04:33N 58°43' E 005°17'1010.1
2016-Nov-30 03:33N 58°33' E 005°16'10 8.9
2016-Nov-30 02:28N 58°23' E 005°20'9 9.6
2016-Nov-30 01:33N 58°17' E 005°32'10 9.5
2016-Nov-30 00:33N 58°11' E 005°46'1010.3
2016-Nov-29 23:33N 58°04' E 006°01'9 9.6
2016-Nov-29 22:33N 57°58' E 006°14'7973.8
2016-Nov-29 21:29N 59°14' E 005°31'9693.5
2016-Nov-29 20:28N 57°47' E 006°49'9619.4
2016-Nov-29 15:32N 59°14' E 005°31'0 0.1
2016-Nov-29 14:32N 59°14' E 005°31'0 0.0
2016-Nov-29 13:26N 59°14' E 005°31'0 0.1
2016-Nov-29 12:05N 59°14' E 005°31'0 0.0
2016-Nov-29 11:32N 59°14' E 005°31'0 0.0
2016-Nov-29 10:32N 59°14' E 005°30'0 0.0
2016-Nov-29 09:32N 59°14' E 005°31'0 0.0
2016-Nov-29 08:23N 59°14' E 005°31'0 0.0
2016-Nov-29 07:29N 59°14' E 005°31'0 0.0
2016-Nov-29 06:29N 59°14' E 005°31'0 0.0
2016-Nov-29 05:29N 59°14' E 005°31'0 0.0
2016-Nov-29 04:32N 59°14' E 005°31'0 0.0
2016-Nov-29 03:29N 59°14' E 005°31'0 0.0
2016-Nov-29 02:26N 59°14' E 005°31'0 0.0
2016-Nov-29 01:32N 59°14' E 005°31'0 0.0
2016-Nov-29 00:32N 59°14' E 005°31'0 0.0
2016-Nov-28 23:32N 59°14' E 005°31'0 0.0
2016-Nov-28 22:32N 59°14' E 005°31'0 0.0
2016-Nov-28 21:32N 59°14' E 005°31'0 0.0
2016-Nov-28 20:32N 59°14' E 005°31'0 0.0
2016-Nov-28 19:17N 59°14' E 005°31'0 0.0
2016-Nov-28 18:29N 59°14' E 005°31'0 0.0
2016-Nov-28 15:17N 59°14' E 005°31'0 0.0
2016-Nov-28 14:32N 59°14' E 005°31'0 0.0
2016-Nov-28 13:32N 59°14' E 005°31'0 0.0
2016-Nov-28 12:32N 59°14' E 005°30'0 0.0
2016-Nov-28 11:26N 59°14' E 005°30'0 0.0
2016-Nov-28 10:32N 59°14' E 005°31'0 0.0
2016-Nov-28 09:32N 59°14' E 005°31'0 0.0
2016-Nov-28 08:32N 59°14' E 005°31'0 0.0
2016-Nov-28 07:14N 59°14' E 005°31'0 0.0
2016-Nov-28 05:29N 59°14' E 005°31'0 0.0
2016-Nov-28 04:32N 59°14' E 005°31'2 2.1
2016-Nov-28 03:33N 59°12' E 005°32'9 9.0
2016-Nov-28 02:33N 59°05' E 005°22'1212.0
2016-Nov-28 01:33N 58°53' E 005°18'1111.0
2016-Nov-28 00:33N 58°42' E 005°17'1313.4
2016-Nov-27 23:34N 58°29' E 005°16'1312.6
2016-Nov-27 22:33N 58°18' E 005°30'1813.7
2016-Nov-27 21:15N 58°07' E 005°56'1014.1
2016-Nov-27 20:33N 58°00' E 006°10'1414.1
2016-Nov-27 19:33N 57°51' E 006°30'1413.7
2016-Nov-27 18:33N 57°47' E 006°54'1614.2
2016-Nov-27 17:28N 57°47' E 007°24'9613.9
2016-Nov-27 10:34N 57°49' E 010°24'1312.6
2016-Nov-27 09:33N 57°49' E 010°47'1211.5
2016-Nov-27 08:33N 57°42' E 011°05'1211.9
2016-Nov-27 07:33N 57°38' E 011°26'1010.2
2016-Nov-27 06:33N 57°39' E 011°44'2 2.0
2016-Nov-27 05:33N 57°40' E 011°48'0 0.0
2016-Nov-27 04:33N 57°40' E 011°48'0 0.0
2016-Nov-27 03:33N 57°40' E 011°48'0 0.0
2016-Nov-27 02:33N 57°40' E 011°48'0 0.0
2016-Nov-27 01:33N 57°40' E 011°48'1 1.0
2016-Nov-27 00:34N 57°40' E 011°46'9 9.1
2016-Nov-26 23:34N 57°32' E 011°36'8 8.1
2016-Nov-26 22:33N 57°24' E 011°36'1110.9
2016-Nov-26 21:33N 57°13' E 011°37'1212.1
2016-Nov-26 20:33N 57°01' E 011°44'4711.7
2016-Nov-26 16:34N 56°17' E 012°09'1211.6
2016-Nov-26 15:33N 56°10' E 012°26'10 9.6
2016-Nov-26 14:33N 56°04' E 012°39'9 8.9
2016-Nov-26 13:33N 55°55' E 012°39'1111.1
2016-Nov-26 12:34N 55°44' E 012°41'1010.2
2016-Nov-26 11:34N 55°33' E 012°42'1010.3
2016-Nov-26 10:34N 55°23' E 012°41'1010.0
2016-Nov-26 09:33N 55°16' E 012°53'1111.4
2016-Nov-26 08:33N 55°11' E 013°12'1211.5
2016-Nov-26 07:33N 55°02' E 013°24'2612.6
2016-Nov-26 05:30N 54°42' E 013°53'1412.8
2016-Nov-26 04:26N 54°39' E 014°16'1512.9
2016-Nov-26 03:16N 54°39' E 014°42'913.1
2016-Nov-26 02:33N 54°40' E 014°57'1313.1
2016-Nov-26 01:33N 54°42' E 015°20'1413.4
2016-Nov-26 00:30N 54°44' E 015°44'7813.1
2016-Nov-25 18:33N 54°59' E 017°57'1313.3
2016-Nov-25 17:34N 54°59' E 018°20'1313.4
2016-Nov-25 16:33N 54°59' E 018°44'1414.1
2016-Nov-25 15:33N 54°48' E 018°59'1313.3
2016-Nov-25 14:33N 54°35' E 019°06'1111.3
2016-Nov-25 13:34N 54°26' E 018°54'7 7.0
2016-Nov-25 12:31N 54°24' E 018°42'0 0.0
2016-Nov-25 11:31N 54°24' E 018°42'0 0.0
2016-Nov-25 10:31N 54°24' E 018°42'0 0.0
2016-Nov-25 09:31N 54°24' E 018°42'0 0.0
2016-Nov-25 08:31N 54°24' E 018°42'0 0.0
2016-Nov-25 07:31N 54°24' E 018°42'  

Dump ship's entire track history